createdAt,value
2019-05-12T00:03:18.908Z,94.10
2019-05-12T00:07:28.540Z,94.30
2019-05-12T00:11:37.991Z,94.20
2019-05-12T00:15:47.657Z,94.10
2019-05-12T00:19:58.476Z,94.00
2019-05-12T00:24:13.460Z,94.00
2019-05-12T00:28:22.250Z,93.90
2019-05-12T00:32:31.050Z,93.90
2019-05-12T00:36:39.922Z,93.70
2019-05-12T00:40:48.821Z,93.90
2019-05-12T00:44:58.562Z,93.90
2019-05-12T00:49:07.974Z,93.70
2019-05-12T00:53:18.886Z,93.80
2019-05-12T00:57:28.632Z,93.90
2019-05-12T01:01:38.259Z,93.80
2019-05-12T01:05:48.561Z,93.80
2019-05-12T01:09:58.047Z,93.80
2019-05-12T01:14:08.527Z,93.60
2019-05-12T01:18:18.252Z,93.70
2019-05-12T01:22:27.800Z,93.80
2019-05-12T01:26:38.782Z,93.70
2019-05-12T01:30:47.956Z,93.60
2019-05-12T01:34:57.788Z,93.50
2019-05-12T01:39:08.774Z,93.50
2019-05-12T01:43:18.635Z,93.40
2019-05-12T01:47:29.072Z,93.20
2019-05-12T01:51:38.657Z,93.10
2019-05-12T01:55:48.597Z,93.00
2019-05-12T01:59:58.621Z,92.90
2019-05-12T02:04:07.867Z,93.00
2019-05-12T02:08:22.346Z,93.10
2019-05-12T02:12:31.192Z,93.10
2019-05-12T02:16:40.029Z,93.10
2019-05-12T02:20:48.789Z,93.10
2019-05-12T02:24:58.428Z,93.40
2019-05-12T02:29:08.042Z,93.50
2019-05-12T02:33:16.907Z,93.70
2019-05-12T02:37:26.385Z,93.70
2019-05-12T02:41:35.419Z,93.50
2019-05-12T02:45:44.718Z,93.20
2019-05-12T02:49:54.493Z,93.30
2019-05-12T02:54:05.526Z,93.40
2019-05-12T02:58:16.672Z,93.40
2019-05-12T03:02:27.440Z,93.40
2019-05-12T03:06:38.052Z,93.40
2019-05-12T03:10:48.566Z,93.40
2019-05-12T03:14:57.419Z,93.50
2019-05-12T03:19:06.178Z,93.40
2019-05-12T03:23:19.410Z,93.50
2019-05-12T03:27:26.159Z,93.50
2019-05-12T03:31:39.705Z,93.40
2019-05-12T03:35:52.188Z,93.40
2019-05-12T03:39:56.522Z,93.30
2019-05-12T03:44:05.697Z,93.20
2019-05-12T03:48:15.015Z,93.10
2019-05-12T03:52:24.639Z,93.20
2019-05-12T03:56:34.666Z,93.30
2019-05-12T04:00:44.727Z,93.70
2019-05-12T04:04:55.468Z,93.20
2019-05-12T04:09:07.507Z,93.10
2019-05-12T04:13:16.514Z,93.10
2019-05-12T04:17:25.291Z,92.90
2019-05-12T04:21:34.989Z,92.80
2019-05-12T04:25:51.954Z,92.70
2019-05-12T04:29:54.851Z,92.70
2019-05-12T04:34:05.236Z,92.60
2019-05-12T04:38:15.199Z,92.40
2019-05-12T04:42:25.083Z,92.30
2019-05-12T04:46:34.788Z,92.30
2019-05-12T04:50:45.235Z,92.20
2019-05-12T04:54:55.241Z,92.00
2019-05-12T04:59:05.217Z,91.90
2019-05-12T05:03:14.535Z,91.80
2019-05-12T05:07:24.383Z,91.50
2019-05-12T05:11:34.572Z,91.30
2019-05-12T05:15:44.591Z,91.00
2019-05-12T05:19:53.630Z,90.50
2019-05-12T05:24:03.772Z,90.20
2019-05-12T05:28:14.681Z,89.20
2019-05-12T05:32:23.385Z,87.90
2019-05-12T05:36:34.344Z,86.60
2019-05-12T05:40:43.882Z,85.80
2019-05-12T05:44:54.316Z,83.80
2019-05-12T05:49:04.233Z,81.60
2019-05-12T05:53:17.518Z,79.80
2019-05-12T05:57:25.765Z,77.50
2019-05-12T06:01:34.875Z,75.40
2019-05-12T06:05:44.127Z,75.10
2019-05-12T06:09:53.647Z,74.40
2019-05-12T06:14:11.062Z,69.50
2019-05-12T06:18:13.663Z,68.60
2019-05-12T06:22:23.600Z,68.10
2019-05-12T06:26:35.298Z,67.10
2019-05-12T06:30:45.018Z,66.60
2019-05-12T06:34:57.060Z,63.00
2019-05-12T06:39:10.367Z,63.60
2019-05-12T06:43:16.730Z,63.70
2019-05-12T06:47:25.494Z,62.20
2019-05-12T06:51:34.341Z,61.90
2019-05-12T06:55:43.446Z,60.80
2019-05-12T06:59:53.089Z,59.50
2019-05-12T07:04:06.427Z,57.60
2019-05-12T07:08:20.013Z,58.20
2019-05-12T07:12:32.311Z,56.80
2019-05-12T07:16:35.309Z,55.50
2019-05-12T07:20:44.229Z,55.10
2019-05-12T07:24:54.760Z,54.20
2019-05-12T07:29:04.538Z,51.20
2019-05-12T07:33:14.607Z,51.80
2019-05-12T07:37:25.647Z,52.20
2019-05-12T07:41:36.279Z,51.80
2019-05-12T07:45:47.780Z,51.20
2019-05-12T07:49:56.929Z,50.00
2019-05-12T07:54:05.730Z,49.60
2019-05-12T07:58:18.758Z,50.10
2019-05-12T08:02:31.717Z,51.10
2019-05-12T08:06:41.604Z,50.60
2019-05-12T08:10:51.414Z,50.10
2019-05-12T08:14:59.290Z,50.60
2019-05-12T08:19:08.511Z,49.10
2019-05-12T08:23:17.492Z,49.00
2019-05-12T08:27:26.515Z,47.70
2019-05-12T08:31:40.362Z,47.20
2019-05-12T08:35:45.863Z,47.60
2019-05-12T08:40:03.114Z,48.20
2019-05-12T08:44:05.554Z,48.30
2019-05-12T08:48:19.357Z,48.40
2019-05-12T08:52:25.054Z,46.00
2019-05-12T08:56:33.919Z,45.70
2019-05-12T09:00:50.163Z,45.00
2019-05-12T09:04:55.724Z,45.60
2019-05-12T09:09:07.239Z,45.40
2019-05-12T09:13:15.998Z,45.90
2019-05-12T09:17:24.751Z,45.30
2019-05-12T09:21:36.559Z,45.90
2019-05-12T09:25:48.249Z,47.30
2019-05-12T09:29:59.180Z,47.50
2019-05-12T09:34:11.502Z,47.90
2019-05-12T09:38:21.341Z,47.90
2019-05-12T09:42:29.968Z,46.80
2019-05-12T09:46:37.779Z,43.90
2019-05-12T09:50:51.501Z,44.40
2019-05-12T09:54:57.479Z,45.30
2019-05-12T09:59:17.416Z,44.30
2019-05-12T10:03:16.847Z,43.20
2019-05-12T10:07:25.730Z,42.20
2019-05-12T10:11:34.623Z,42.30
2019-05-12T10:15:43.507Z,41.20
2019-05-12T10:19:54.177Z,42.20
2019-05-12T10:24:04.951Z,41.60
2019-05-12T10:28:16.025Z,40.70
2019-05-12T10:32:27.578Z,41.30
2019-05-12T10:36:39.079Z,42.10
2019-05-12T10:40:48.360Z,43.00
2019-05-12T10:44:57.556Z,43.70
2019-05-12T10:49:06.601Z,43.40
2019-05-12T10:53:17.733Z,41.70
2019-05-12T10:57:25.861Z,40.40
2019-05-12T11:01:38.577Z,41.50
2019-05-12T11:05:45.206Z,41.40
2019-05-12T11:09:54.435Z,42.00
2019-05-12T11:14:03.933Z,41.20
2019-05-12T11:18:15.134Z,38.00
2019-05-12T11:22:23.946Z,36.90
2019-05-12T11:26:32.709Z,36.30
2019-05-12T11:30:43.524Z,38.00
2019-05-12T11:34:53.730Z,37.30
2019-05-12T11:39:03.670Z,38.00
2019-05-12T11:43:14.444Z,38.60
2019-05-12T11:47:25.975Z,38.10
2019-05-12T11:51:34.113Z,36.40
2019-05-12T11:55:43.856Z,35.90
2019-05-12T11:59:59.076Z,37.50
2019-05-12T12:04:03.763Z,37.80
2019-05-12T12:08:14.410Z,38.10
2019-05-12T12:12:24.282Z,38.90
2019-05-12T12:16:34.104Z,38.80
2019-05-12T12:20:44.283Z,35.50
2019-05-12T12:24:54.259Z,36.10
2019-05-12T12:29:03.451Z,34.40
2019-05-12T12:33:14.136Z,34.50
2019-05-12T12:37:24.203Z,35.30
2019-05-12T12:41:34.148Z,35.00
2019-05-12T12:45:51.474Z,36.90
2019-05-12T12:50:00.322Z,38.10
2019-05-12T12:54:09.091Z,36.80
2019-05-12T12:58:20.985Z,34.40
2019-05-12T13:02:28.443Z,33.50
2019-05-12T13:06:37.454Z,34.20
2019-05-12T13:10:51.120Z,34.20
2019-05-12T13:14:56.755Z,35.40
2019-05-12T13:19:12.144Z,34.20
2019-05-12T13:23:16.186Z,34.30
2019-05-12T13:27:28.960Z,35.00
2019-05-12T13:31:35.580Z,34.60
2019-05-12T13:35:44.413Z,33.90
2019-05-12T13:39:56.820Z,34.50
2019-05-12T13:44:04.307Z,35.00
2019-05-12T13:48:15.903Z,35.10
2019-05-12T13:52:26.426Z,37.00
2019-05-12T13:56:35.792Z,38.60
2019-05-12T14:00:50.866Z,39.10
2019-05-12T14:05:00.467Z,38.10
2019-05-12T14:09:06.671Z,36.40
2019-05-12T14:13:15.425Z,36.90
2019-05-12T14:17:24.223Z,38.00
2019-05-12T14:21:40.833Z,37.10
2019-05-12T14:25:43.853Z,36.40
2019-05-12T14:29:53.708Z,37.50
2019-05-12T14:34:04.291Z,38.60
2019-05-12T14:38:14.183Z,37.80
2019-05-12T14:42:26.012Z,36.70
2019-05-12T14:46:34.001Z,37.30
2019-05-12T14:50:44.118Z,37.50
2019-05-12T14:54:54.210Z,38.10
2019-05-12T14:59:03.503Z,38.70
2019-05-12T15:03:15.737Z,38.00
2019-05-12T15:07:23.660Z,37.30
2019-05-12T15:11:34.128Z,35.30
2019-05-12T15:15:44.107Z,35.70
2019-05-12T15:19:54.269Z,37.00
2019-05-12T15:24:03.991Z,36.70
2019-05-12T15:28:14.544Z,37.70
2019-05-12T15:32:23.697Z,37.30
2019-05-12T15:36:33.634Z,35.80
2019-05-12T15:40:43.342Z,34.60
2019-05-12T15:44:53.729Z,34.00
2019-05-12T15:49:03.466Z,34.90
2019-05-12T15:53:13.790Z,36.00
2019-05-12T15:57:24.453Z,37.10
2019-05-12T16:01:33.564Z,37.50
2019-05-12T16:05:44.358Z,37.70
2019-05-12T16:09:54.645Z,38.20
2019-05-12T16:14:03.687Z,38.50
2019-05-12T16:18:14.503Z,38.10
2019-05-12T16:22:23.291Z,39.70
2019-05-12T16:26:33.463Z,38.50
2019-05-12T16:30:43.582Z,37.60
2019-05-12T16:34:54.103Z,37.10
2019-05-12T16:39:07.656Z,37.80
2019-05-12T16:43:16.031Z,39.70
2019-05-12T16:47:29.074Z,40.30
2019-05-12T16:51:35.530Z,41.00
2019-05-12T16:55:46.498Z,42.00
2019-05-12T17:00:02.490Z,42.50
2019-05-12T17:04:05.633Z,42.60
2019-05-12T17:08:14.395Z,42.20
2019-05-12T17:12:31.712Z,42.00
2019-05-12T17:16:41.869Z,42.10
2019-05-12T17:20:47.036Z,42.60
2019-05-12T17:24:55.270Z,40.20
2019-05-12T17:29:04.210Z,35.40
2019-05-12T17:33:22.225Z,32.50
2019-05-12T17:37:23.921Z,30.00
2019-05-12T17:41:40.557Z,29.60
2019-05-12T17:45:44.343Z,27.90
2019-05-12T17:49:53.918Z,27.90
2019-05-12T17:54:06.659Z,26.60
2019-05-12T17:58:13.834Z,26.90
2019-05-12T18:02:23.625Z,27.20
2019-05-12T18:06:34.085Z,26.90
2019-05-12T18:10:43.678Z,26.50
2019-05-12T18:14:52.512Z,27.60
2019-05-12T18:19:03.270Z,27.10
2019-05-12T18:23:13.406Z,27.40
2019-05-12T18:27:23.014Z,27.50
2019-05-12T18:31:33.427Z,28.30
2019-05-12T18:35:43.961Z,30.10
2019-05-12T18:39:53.623Z,33.60
2019-05-12T18:44:04.461Z,35.90
2019-05-12T18:48:20.343Z,38.20
2019-05-12T18:52:29.302Z,40.50
2019-05-12T18:56:35.158Z,42.90
2019-05-12T19:00:43.917Z,44.70
2019-05-12T19:04:53.861Z,46.30
2019-05-12T19:09:04.178Z,47.60
2019-05-12T19:13:13.401Z,49.00
2019-05-12T19:17:24.186Z,49.30
2019-05-12T19:21:33.098Z,50.70
2019-05-12T19:25:43.681Z,51.60
2019-05-12T19:29:54.603Z,52.30
2019-05-12T19:34:15.826Z,53.50
2019-05-12T19:38:15.600Z,54.20
2019-05-12T19:42:24.637Z,55.00
2019-05-12T19:46:34.166Z,56.60
2019-05-12T19:50:44.504Z,57.20
2019-05-12T19:54:53.771Z,57.90
2019-05-12T19:59:04.388Z,58.60
2019-05-12T20:03:14.019Z,59.10
2019-05-12T20:07:23.457Z,59.70
2019-05-12T20:11:32.507Z,60.00
2019-05-12T20:15:43.774Z,60.70
2019-05-12T20:19:54.031Z,61.70
2019-05-12T20:24:03.694Z,62.80
2019-05-12T20:28:14.454Z,63.30
2019-05-12T20:32:24.058Z,63.80
2019-05-12T20:36:33.489Z,64.20
2019-05-12T20:40:43.325Z,64.90
2019-05-12T20:45:00.682Z,66.00
2019-05-12T20:49:09.775Z,66.80
2019-05-12T20:53:14.437Z,67.60
2019-05-12T20:57:23.752Z,68.80
2019-05-12T21:01:33.591Z,68.80
2019-05-12T21:05:42.785Z,69.60
2019-05-12T21:09:51.843Z,70.20
2019-05-12T21:14:00.923Z,70.40
2019-05-12T21:18:11.197Z,70.30
2019-05-12T21:22:23.588Z,70.60
2019-05-12T21:26:34.467Z,71.40
2019-05-12T21:30:47.528Z,71.90
2019-05-12T21:34:57.689Z,72.60
2019-05-12T21:39:10.420Z,73.50
2019-05-12T21:43:16.907Z,73.80
2019-05-12T21:47:25.670Z,73.90
2019-05-12T21:51:35.506Z,73.60
2019-05-12T21:55:44.462Z,73.20
2019-05-12T21:59:55.672Z,73.00
2019-05-12T22:04:05.381Z,73.00
2019-05-12T22:08:20.653Z,73.10
2019-05-12T22:12:28.618Z,73.00
2019-05-12T22:16:43.687Z,73.10
2019-05-12T22:20:54.399Z,73.40
2019-05-12T22:24:59.709Z,73.30
2019-05-12T22:29:08.490Z,73.30
2019-05-12T22:33:17.400Z,73.70
2019-05-12T22:37:29.269Z,73.90
2019-05-12T22:41:41.399Z,74.80
2019-05-12T22:45:49.461Z,75.50
2019-05-12T22:49:57.873Z,76.10
2019-05-12T22:54:10.380Z,76.70
2019-05-12T22:58:22.414Z,77.20
2019-05-12T23:02:29.992Z,76.80
2019-05-12T23:06:42.081Z,76.50
2019-05-12T23:10:51.998Z,76.20
2019-05-12T23:15:02.895Z,76.40
2019-05-12T23:19:12.223Z,76.50
2019-05-12T23:23:21.007Z,76.50
2019-05-12T23:27:30.086Z,76.40
2019-05-12T23:31:38.909Z,76.50
2019-05-12T23:35:47.774Z,76.50
2019-05-12T23:39:56.616Z,76.50
2019-05-12T23:44:05.540Z,76.50
2019-05-12T23:48:14.492Z,76.90
2019-05-12T23:52:24.115Z,77.20
2019-05-12T23:56:33.721Z,77.80
